Time;durP1;ratioP1;P1;durP2;ratioP2;P2;SDS_P1;SDS_P2;PMS_P1;PMS_P2;Temp;Humidity;BMP_temperature;BMP_pressure;BME280_temperature;BME280_humidity;BME280_pressure;Samples;Min_cycle;Max_cycle;Signal;HPM_P1;HPM_P2
2022/03/28 00:01:09;;;;;;;16.77;4.13;;;8.30;99.90;;;;;;5070788;28;20033;-76
2022/03/28 00:03:35;;;;;;;21.20;3.90;;;8.30;99.90;;;;;;5071496;28;20473;-77
2022/03/28 00:06:02;;;;;;;26.30;5.18;;;8.20;99.90;;;;;;5071677;28;20029;-76
2022/03/28 00:08:28;;;;;;;22.83;4.53;;;8.20;99.90;;;;;;5070508;28;20071;-76
2022/03/28 00:10:54;;;;;;;22.73;4.30;;;8.10;99.90;;;;;;5071816;28;20469;-76
2022/03/28 00:13:19;;;;;;;22.48;4.10;;;8.10;99.90;;;;;;5071299;28;20054;-76
2022/03/28 00:15:45;;;;;;;20.75;4.80;;;8.20;99.90;;;;;;5070774;28;20021;-76
2022/03/28 00:18:11;;;;;;;24.90;5.07;;;8.10;99.90;;;;;;5071372;28;20036;-75
2022/03/28 00:20:37;;;;;;;25.55;4.32;;;8.10;99.90;;;;;;5071693;28;20103;-76
2022/03/28 00:23:03;;;;;;;19.38;4.88;;;8.10;99.90;;;;;;5070961;28;20041;-76
2022/03/28 00:25:29;;;;;;;22.40;5.30;;;8.00;99.90;;;;;;5073984;28;20037;-76
2022/03/28 00:27:55;;;;;;;19.25;4.15;;;8.00;99.90;;;;;;5075280;28;20035;-76
2022/03/28 00:30:21;;;;;;;18.13;3.25;;;8.00;99.90;;;;;;5074644;28;20021;-75
2022/03/28 00:32:46;;;;;;;17.00;4.18;;;8.00;99.90;;;;;;5075038;28;20032;-75
2022/03/28 00:35:12;;;;;;;23.85;4.95;;;7.90;99.90;;;;;;5075725;28;20021;-75
2022/03/28 00:37:39;;;;;;;22.00;4.50;;;7.90;99.90;;;;;;5075793;28;20032;-75
2022/03/28 00:40:06;;;;;;;22.30;4.40;;;7.90;99.90;;;;;;5075682;28;20048;-75
2022/03/28 00:42:32;;;;;;;27.50;5.35;;;7.80;99.90;;;;;;5074695;28;20044;-75
2022/03/28 00:44:57;;;;;;;17.38;3.33;;;7.80;99.90;;;;;;5077837;28;20373;-75
2022/03/28 00:47:23;;;;;;;21.27;3.65;;;7.80;99.90;;;;;;5078285;28;20495;-75
2022/03/28 00:49:48;;;;;;;27.52;4.38;;;7.80;99.90;;;;;;5081799;28;20024;-75
2022/03/28 00:52:17;;;;;;;23.80;5.10;;;7.70;99.90;;;;;;5075576;28;20025;-76
2022/03/28 00:54:43;;;;;;;21.58;4.57;;;7.60;99.90;;;;;;5075281;28;20024;-76
2022/03/28 00:57:09;;;;;;;23.27;4.15;;;7.60;99.90;;;;;;5073753;28;20675;-76
2022/03/28 00:59:36;;;;;;;19.67;3.97;;;7.60;99.90;;;;;;5075487;28;20028;-76
2022/03/28 01:02:02;;;;;;;31.42;4.47;;;7.50;99.90;;;;;;5075397;28;20115;-74
2022/03/28 01:04:28;;;;;;;22.58;4.15;;;7.60;99.90;;;;;;5073173;28;20033;-75
2022/03/28 01:06:54;;;;;;;23.95;4.32;;;7.50;99.90;;;;;;5073958;28;20021;-76
2022/03/28 01:09:20;;;;;;;23.83;4.55;;;7.60;99.90;;;;;;5073989;28;20472;-77
2022/03/28 01:11:46;;;;;;;16.88;4.13;;;7.60;99.90;;;;;;5073775;28;20073;-75
2022/03/28 01:14:12;;;;;;;23.83;4.43;;;7.60;99.90;;;;;;5090606;28;20054;-75
2022/03/28 01:19:23;;;;;;;23.52;6.53;;;7.60;99.90;;;;;;5093316;28;20038;-75
2022/03/28 01:21:50;;;;;;;19.77;4.72;;;7.50;99.90;;;;;;5094085;28;20027;-76
2022/03/28 01:24:16;;;;;;;24.13;4.63;;;7.40;99.90;;;;;;5093881;28;20027;-77
2022/03/28 01:26:43;;;;;;;24.67;4.35;;;7.40;99.90;;;;;;5093516;28;20089;-77
2022/03/28 01:29:09;;;;;;;17.20;4.45;;;7.30;99.90;;;;;;5093725;28;20392;-76
2022/03/28 01:31:39;;;;;;;22.92;5.22;;;7.20;99.90;;;;;;5093840;28;20031;-76
2022/03/28 01:34:04;;;;;;;18.88;4.72;;;7.20;99.90;;;;;;5093364;28;20099;-76
2022/03/28 01:36:33;;;;;;;23.70;4.45;;;7.20;99.90;;;;;;5093385;28;20154;-75
2022/03/28 01:38:59;;;;;;;30.40;4.30;;;7.20;99.90;;;;;;5093869;28;20028;-76
2022/03/28 01:41:24;;;;;;;17.38;4.93;;;7.10;99.90;;;;;;5093409;28;20024;-75
2022/03/28 01:43:50;;;;;;;22.33;4.15;;;7.10;99.90;;;;;;5093508;28;20032;-76
2022/03/28 01:46:16;;;;;;;29.70;4.85;;;7.10;99.90;;;;;;5092675;28;20027;-75
2022/03/28 01:48:41;;;;;;;27.05;5.70;;;7.00;99.90;;;;;;5093723;28;20031;-75
2022/03/28 01:51:07;;;;;;;34.38;4.90;;;7.00;99.90;;;;;;5093328;28;20430;-75
2022/03/28 01:53:32;;;;;;;26.67;4.15;;;7.00;99.90;;;;;;5093458;28;20024;-76
2022/03/28 01:55:58;;;;;;;19.40;4.80;;;6.90;99.90;;;;;;5093513;28;20031;-75
2022/03/28 01:58:23;;;;;;;38.25;4.95;;;6.90;99.90;;;;;;5093311;28;20150;-76
2022/03/28 02:00:49;;;;;;;20.40;4.22;;;6.90;99.90;;;;;;5092600;28;20020;-76
2022/03/28 02:03:14;;;;;;;28.08;4.32;;;6.80;99.90;;;;;;5092782;28;20236;-76
2022/03/28 02:05:40;;;;;;;21.67;4.38;;;6.80;99.90;;;;;;5093301;28;20024;-76
2022/03/28 02:08:07;;;;;;;25.00;4.22;;;6.80;99.90;;;;;;5092490;28;20055;-76
2022/03/28 02:10:35;;;;;;;23.00;4.70;;;6.70;99.90;;;;;;5093226;28;20040;-77
2022/03/28 02:13:01;;;;;;;22.60;4.05;;;6.70;99.90;;;;;;5092957;28;20024;-76
2022/03/28 02:15:26;;;;;;;18.92;4.28;;;6.70;99.90;;;;;;5092223;28;20030;-76
2022/03/28 02:17:52;;;;;;;32.92;4.80;;;6.70;99.90;;;;;;5093225;28;20122;-77
2022/03/28 02:20:18;;;;;;;24.38;5.10;;;6.70;99.90;;;;;;5092648;28;20111;-77
2022/03/28 02:22:44;;;;;;;23.42;5.03;;;6.70;99.90;;;;;;5092223;28;20032;-76
2022/03/28 02:25:11;;;;;;;29.45;5.20;;;6.60;99.90;;;;;;5092644;28;20032;-77
2022/03/28 02:27:41;;;;;;;24.77;3.92;;;6.60;99.90;;;;;;5092851;28;20032;-76
2022/03/28 02:30:12;;;;;;;25.90;4.95;;;6.60;99.90;;;;;;5092346;28;20039;-77
2022/03/28 02:32:38;;;;;;;28.48;4.45;;;6.70;99.90;;;;;;5092673;28;20499;-77
2022/03/28 02:35:05;;;;;;;19.83;6.00;;;6.60;99.90;;;;;;5092914;28;20024;-77
2022/03/28 02:37:31;;;;;;;26.23;4.80;;;6.60;99.90;;;;;;5091425;28;20028;-77
2022/03/28 02:39:56;;;;;;;17.00;4.15;;;6.60;99.90;;;;;;5092747;28;20068;-77
2022/03/28 02:42:22;;;;;;;34.97;6.38;;;6.50;99.90;;;;;;5091587;28;20512;-77
2022/03/28 02:44:50;;;;;;;24.75;4.80;;;6.60;99.90;;;;;;5093152;28;20103;-77
2022/03/28 02:47:20;;;;;;;25.02;4.72;;;6.50;99.90;;;;;;5093360;28;20035;-77
2022/03/28 02:49:47;;;;;;;25.85;5.15;;;6.40;99.90;;;;;;5092785;28;20024;-76
2022/03/28 02:52:12;;;;;;;22.88;4.28;;;6.40;99.90;;;;;;5092159;28;20124;-76
2022/03/28 02:54:38;;;;;;;27.30;4.68;;;6.40;99.90;;;;;;5092746;28;20473;-76
2022/03/28 02:57:04;;;;;;;23.00;5.60;;;6.40;99.90;;;;;;5093779;28;20017;-76
2022/03/28 02:59:29;;;;;;;29.15;6.20;;;6.40;99.90;;;;;;5092831;28;20034;-76
2022/03/28 03:01:55;;;;;;;23.10;6.13;;;6.40;99.90;;;;;;5093990;28;20382;-77
2022/03/28 03:04:20;;;;;;;28.15;5.63;;;6.50;99.90;;;;;;5092442;28;20028;-76
2022/03/28 03:06:46;;;;;;;27.15;5.65;;;6.40;99.90;;;;;;5092124;28;20360;-76
2022/03/28 03:09:11;;;;;;;17.27;4.60;;;6.40;99.90;;;;;;5092121;28;20044;-76
2022/03/28 03:11:37;;;;;;;14.05;5.00;;;6.30;99.90;;;;;;5092630;28;20028;-77
2022/03/28 03:14:03;;;;;;;16.33;4.20;;;6.40;99.90;;;;;;5092594;28;20434;-76
2022/03/28 03:16:29;;;;;;;21.83;5.28;;;6.30;99.90;;;;;;5092182;28;20043;-76
2022/03/28 03:18:55;;;;;;;32.42;5.10;;;6.30;99.90;;;;;;5091790;28;20024;-76
2022/03/28 03:21:22;;;;;;;27.38;6.30;;;7.10;99.90;;;;;;5092039;28;20050;-76
2022/03/28 03:23:47;;;;;;;19.85;4.55;;;6.30;99.90;;;;;;5092078;28;20058;-76
2022/03/28 03:26:13;;;;;;;18.50;4.65;;;6.20;99.90;;;;;;5091268;28;20467;-76
2022/03/28 03:28:39;;;;;;;28.52;5.25;;;6.20;99.90;;;;;;5092648;28;20082;-75
2022/03/28 03:31:04;;;;;;;23.90;4.80;;;6.20;99.90;;;;;;5092217;28;20487;-76
2022/03/28 03:33:30;;;;;;;24.92;5.53;;;6.10;99.90;;;;;;5091135;28;20032;-76
2022/03/28 03:35:58;;;;;;;17.55;4.88;;;6.10;99.90;;;;;;5092152;28;20052;-75
2022/03/28 03:38:24;;;;;;;23.98;5.18;;;6.10;99.90;;;;;;5091551;28;20077;-75
2022/03/28 03:40:49;;;;;;;21.10;5.00;;;6.10;99.90;;;;;;5091078;28;20020;-75
2022/03/28 03:43:15;;;;;;;24.33;5.03;;;6.10;99.90;;;;;;5091790;28;20444;-75
2022/03/28 03:45:40;;;;;;;20.15;6.13;;;6.80;99.90;;;;;;5091253;28;20020;-75
2022/03/28 03:48:06;;;;;;;22.55;5.10;;;6.00;99.90;;;;;;5091942;28;20028;-75
2022/03/28 03:50:32;;;;;;;25.88;5.10;;;6.00;99.90;;;;;;5091915;28;20032;-75
2022/03/28 03:52:57;;;;;;;21.77;5.05;;;5.90;99.90;;;;;;5091189;28;20024;-74
2022/03/28 03:55:23;;;;;;;24.13;6.35;;;6.00;99.90;;;;;;5091726;28;20484;-75
2022/03/28 03:57:49;;;;;;;21.73;5.60;;;6.00;99.90;;;;;;5091682;28;20028;-75
2022/03/28 04:00:15;;;;;;;23.27;5.20;;;5.90;99.90;;;;;;5094883;28;20016;-76
2022/03/28 04:02:40;;;;;;;30.27;6.75;;;5.90;99.90;;;;;;5095573;28;20380;-76
2022/03/28 04:05:06;;;;;;;20.98;5.30;;;5.80;99.90;;;;;;5095514;28;20089;-75
2022/03/28 04:07:32;;;;;;;24.98;5.38;;;5.90;99.90;;;;;;5094872;28;20117;-75
2022/03/28 04:10:01;;;;;;;25.48;6.28;;;5.80;99.90;;;;;;5095520;28;20024;-75
2022/03/28 04:12:27;;;;;;;25.40;6.18;;;5.80;99.90;;;;;;5095484;28;20243;-75
2022/03/28 04:14:57;;;;;;;21.23;6.30;;;5.80;99.90;;;;;;5094801;28;20050;-76
2022/03/28 04:17:23;;;;;;;24.27;6.07;;;5.70;99.90;;;;;;5095205;28;20034;-75
2022/03/28 04:19:48;;;;;;;23.17;6.18;;;5.70;99.90;;;;;;5095365;28;20097;-75
2022/03/28 04:22:14;;;;;;;18.30;6.43;;;5.70;99.90;;;;;;5094049;28;20451;-76
2022/03/28 04:24:39;;;;;;;21.90;6.75;;;5.70;99.90;;;;;;5095434;28;20020;-76
2022/03/28 04:27:05;;;;;;;21.05;5.63;;;5.60;99.90;;;;;;5095116;28;20476;-75
2022/03/28 04:29:31;;;;;;;21.83;5.57;;;5.60;99.90;;;;;;5094494;28;20066;-75
2022/03/28 04:31:56;;;;;;;16.42;5.78;;;5.60;99.90;;;;;;5095205;28;20020;-75
2022/03/28 04:34:22;;;;;;;27.00;6.20;;;5.60;99.90;;;;;;5094771;28;20472;-75
2022/03/28 04:36:48;;;;;;;24.48;6.53;;;5.50;99.90;;;;;;5094150;28;20032;-75
2022/03/28 04:39:13;;;;;;;23.63;6.72;;;5.50;99.90;;;;;;5094938;28;20013;-75
2022/03/28 04:41:39;;;;;;;22.63;7.22;;;6.20;99.90;;;;;;5095101;28;20027;-77
2022/03/28 04:44:05;;;;;;;25.80;8.85;;;5.50;99.90;;;;;;5094292;28;20032;-76
2022/03/28 04:46:31;;;;;;;20.00;7.05;;;5.50;99.90;;;;;;5094560;28;20032;-77
2022/03/28 04:48:57;;;;;;;17.05;6.32;;;5.50;99.90;;;;;;5094095;28;20028;-77
2022/03/28 04:51:22;;;;;;;15.88;6.30;;;5.40;99.90;;;;;;5098983;28;20038;-77
2022/03/28 04:53:48;;;;;;;21.33;7.57;;;5.40;99.90;;;;;;5095102;28;20056;-76
2022/03/28 04:56:14;;;;;;;30.95;7.47;;;5.30;99.90;;;;;;5093493;28;20024;-76
2022/03/28 04:58:39;;;;;;;21.48;7.70;;;5.40;99.90;;;;;;5094335;28;20032;-76
2022/03/28 05:01:05;;;;;;;19.23;7.20;;;5.30;99.90;;;;;;5097297;28;20048;-76
2022/03/28 05:03:30;;;;;;;28.67;7.60;;;5.30;99.90;;;;;;5093545;28;20483;-76
2022/03/28 05:05:56;;;;;;;23.30;7.60;;;5.30;99.90;;;;;;5096813;28;20024;-75
2022/03/28 05:08:22;;;;;;;22.73;7.43;;;5.30;99.90;;;;;;5058052;28;20064;-75
2022/03/28 05:10:48;;;;;;;27.25;9.90;;;5.40;99.90;;;;;;5071187;28;20054;-76
2022/03/28 05:13:13;;;;;;;19.60;8.15;;;5.40;99.90;;;;;;5072378;28;20043;-75
2022/03/28 05:15:39;;;;;;;27.02;9.07;;;5.30;99.90;;;;;;5072492;28;20377;-75
2022/03/28 05:18:04;;;;;;;27.02;8.35;;;5.30;99.90;;;;;;5071472;28;20118;-75
2022/03/28 05:20:30;;;;;;;25.10;8.15;;;5.20;99.90;;;;;;5075748;28;20028;-75
2022/03/28 05:22:56;;;;;;;24.13;8.90;;;5.30;99.90;;;;;;5075074;28;20043;-75
2022/03/28 05:25:21;;;;;;;32.78;10.10;;;5.20;99.90;;;;;;5074404;28;20527;-75
2022/03/28 05:27:48;;;;;;;22.55;8.73;;;5.20;99.90;;;;;;5072652;28;20017;-75
2022/03/28 05:30:14;;;;;;;22.27;8.65;;;5.10;99.90;;;;;;5074491;28;20070;-75
2022/03/28 05:32:40;;;;;;;24.27;8.93;;;5.10;99.90;;;;;;5072521;28;20024;-75
2022/03/28 05:35:07;;;;;;;29.08;10.10;;;5.10;99.90;;;;;;5072267;28;20029;-75
2022/03/28 05:37:34;;;;;;;20.52;8.40;;;5.10;99.90;;;;;;5072416;28;20435;-75
2022/03/28 05:39:59;;;;;;;27.00;9.73;;;5.00;99.90;;;;;;5073215;28;20027;-75
2022/03/28 05:42:25;;;;;;;22.58;8.75;;;5.10;99.90;;;;;;5072408;28;20119;-75
2022/03/28 05:44:51;;;;;;;18.23;8.40;;;5.10;99.90;;;;;;5072560;28;20058;-75
2022/03/28 05:47:20;;;;;;;26.15;9.10;;;5.10;99.90;;;;;;5072093;28;20024;-75
2022/03/28 05:49:45;;;;;;;20.02;9.15;;;5.10;99.90;;;;;;5072615;28;20022;-75
2022/03/28 05:52:11;;;;;;;26.08;9.85;;;5.10;99.90;;;;;;5072292;28;20104;-75
2022/03/28 05:54:36;;;;;;;21.90;9.73;;;5.20;99.90;;;;;;5071888;28;20020;-75
2022/03/28 05:57:02;;;;;;;25.52;9.18;;;5.20;99.90;;;;;;5071776;28;20056;-75
2022/03/28 05:59:28;;;;;;;23.02;9.23;;;5.20;99.90;;;;;;5091348;28;20375;-75
2022/03/28 06:01:54;;;;;;;25.65;8.48;;;5.20;99.90;;;;;;5093224;28;20104;-75
2022/03/28 06:04:20;;;;;;;20.75;9.48;;;5.30;99.90;;;;;;5087886;28;20040;-75
2022/03/28 06:06:46;;;;;;;17.05;9.23;;;5.30;99.90;;;;;;5071369;28;20017;-75
2022/03/28 06:09:12;;;;;;;25.10;9.85;;;5.30;99.90;;;;;;5071267;28;20554;-75
2022/03/28 06:11:37;;;;;;;20.30;8.07;;;6.20;99.90;;;;;;5071391;28;20043;-74
2022/03/28 06:14:04;;;;;;;26.33;8.98;;;5.40;99.90;;;;;;5088901;28;20027;-74
2022/03/28 06:16:29;;;;;;;17.00;8.65;;;5.40;99.90;;;;;;5091775;28;20012;-74
2022/03/28 06:18:56;;;;;;;18.38;8.85;;;5.40;99.90;;;;;;5091698;28;20023;-76
2022/03/28 06:21:22;;;;;;;22.85;9.13;;;5.50;99.90;;;;;;5087605;28;20027;-75
2022/03/28 06:23:48;;;;;;;20.85;8.57;;;5.50;99.90;;;;;;5074022;28;20028;-75
2022/03/28 06:26:14;;;;;;;26.05;9.00;;;5.50;99.90;;;;;;5070527;28;20094;-74
2022/03/28 06:28:40;;;;;;;24.00;9.88;;;5.50;99.90;;;;;;5070867;28;20059;-74
2022/03/28 06:31:09;;;;;;;19.25;8.00;;;5.60;99.90;;;;;;5071296;28;20052;-75
2022/03/28 06:33:35;;;;;;;19.02;8.38;;;5.60;99.90;;;;;;5071227;28;20012;-75
2022/03/28 06:36:01;;;;;;;21.83;8.82;;;5.60;99.90;;;;;;5070658;28;20086;-75
2022/03/28 06:38:27;;;;;;;19.90;8.55;;;5.60;99.90;;;;;;5074058;28;20096;-75
2022/03/28 06:40:53;;;;;;;19.40;8.23;;;5.70;99.90;;;;;;5076819;28;20108;-73
2022/03/28 06:43:19;;;;;;;20.35;8.80;;;5.60;99.90;;;;;;5072573;28;20080;-73
2022/03/28 06:45:44;;;;;;;20.73;8.57;;;5.70;99.90;;;;;;5070325;28;20024;-73
2022/03/28 06:48:10;;;;;;;18.45;7.88;;;5.70;99.90;;;;;;5070780;28;20488;-73
2022/03/28 06:50:36;;;;;;;24.80;8.80;;;5.80;99.90;;;;;;5069491;28;20012;-73
2022/03/28 06:53:02;;;;;;;18.08;8.10;;;5.80;99.90;;;;;;5070667;28;20266;-73
2022/03/28 06:55:28;;;;;;;13.88;7.93;;;5.90;99.90;;;;;;5071134;28;20199;-73
2022/03/28 06:57:53;;;;;;;19.50;8.85;;;5.90;99.90;;;;;;5070479;28;20028;-73
2022/03/28 07:00:20;;;;;;;15.68;8.70;;;6.00;99.90;;;;;;5071069;28;20032;-72
2022/03/28 07:02:46;;;;;;;15.30;8.48;;;6.00;99.90;;;;;;5071387;28;20110;-73
2022/03/28 07:05:12;;;;;;;13.63;7.80;;;6.10;99.90;;;;;;5072020;28;20025;-72
2022/03/28 07:07:43;;;;;;;11.75;7.75;;;6.20;99.90;;;;;;5074152;28;20563;-72
2022/03/28 07:10:13;;;;;;;11.52;7.60;;;6.10;99.90;;;;;;5071378;28;20028;-73
2022/03/28 07:12:39;;;;;;;15.70;7.65;;;6.30;99.90;;;;;;5071845;28;20488;-73
2022/03/28 07:15:06;;;;;;;16.08;7.72;;;6.30;99.90;;;;;;5071866;28;20052;-73
2022/03/28 07:17:43;;;;;;;13.05;8.40;;;6.30;99.90;;;;;;5071134;28;20036;-74
2022/03/28 07:20:10;;;;;;;13.48;7.63;;;6.40;99.90;;;;;;5071721;28;20448;-72
2022/03/28 07:22:36;;;;;;;18.48;8.48;;;6.40;99.90;;;;;;5072068;28;20158;-72
2022/03/28 07:25:01;;;;;;;10.90;7.80;;;6.50;99.90;;;;;;5069326;28;20095;-72
2022/03/28 07:27:27;;;;;;;14.48;8.57;;;6.40;99.90;;;;;;5069937;28;20071;-74
2022/03/28 07:29:52;;;;;;;22.02;9.07;;;6.50;99.90;;;;;;5073514;28;20023;-72
2022/03/28 07:32:18;;;;;;;11.95;8.57;;;6.60;99.90;;;;;;5070309;28;20033;-72
2022/03/28 07:34:43;;;;;;;14.85;9.13;;;6.50;99.90;;;;;;5075397;28;20016;-73
2022/03/28 07:37:10;;;;;;;11.63;7.88;;;6.60;99.90;;;;;;5075748;28;20111;-73
2022/03/28 07:39:38;;;;;;;11.23;8.57;;;6.70;99.90;;;;;;5075347;28;20095;-77
2022/03/28 07:42:07;;;;;;;15.18;8.23;;;6.60;99.90;;;;;;5074921;28;20107;-73
2022/03/28 07:44:34;;;;;;;16.27;7.97;;;6.70;99.90;;;;;;5102419;28;20031;-73
2022/03/28 07:47:00;;;;;;;16.95;8.55;;;6.80;99.90;;;;;;5113358;28;20016;-73
2022/03/28 07:49:27;;;;;;;12.25;9.38;;;6.80;99.90;;;;;;5101111;28;20031;-73
2022/03/28 07:51:53;;;;;;;10.48;7.63;;;6.90;99.90;;;;;;5105437;28;20028;-74
2022/03/28 07:54:19;;;;;;;23.75;9.68;;;6.90;99.90;;;;;;5110205;28;20031;-74
2022/03/28 07:56:44;;;;;;;12.63;8.85;;;7.00;99.90;;;;;;5106790;28;20028;-74
2022/03/28 07:59:12;;;;;;;15.93;9.43;;;7.00;99.90;;;;;;5108708;28;20047;-74
2022/03/28 08:01:38;;;;;;;15.10;9.60;;;7.20;99.90;;;;;;5098841;28;20051;-74
2022/03/28 08:04:04;;;;;;;13.93;8.93;;;7.20;99.90;;;;;;5087086;28;20086;-73
2022/03/28 08:06:30;;;;;;;15.55;9.35;;;7.20;99.90;;;;;;5100189;28;20455;-76
2022/03/28 08:08:56;;;;;;;17.30;10.13;;;7.30;99.90;;;;;;5097099;28;20100;-73
2022/03/28 08:11:21;;;;;;;19.65;10.13;;;7.30;99.90;;;;;;5113560;28;20028;-74
2022/03/28 08:13:47;;;;;;;19.85;9.68;;;7.20;99.90;;;;;;5112892;28;20076;-74
2022/03/28 08:16:13;;;;;;;21.95;9.98;;;7.40;99.90;;;;;;5113479;28;20016;-74
2022/03/28 08:18:41;;;;;;;14.05;10.18;;;7.40;99.90;;;;;;5113705;28;20073;-74
2022/03/28 08:21:06;;;;;;;19.77;10.50;;;7.50;99.90;;;;;;5113460;28;20413;-74
2022/03/28 08:23:32;;;;;;;17.08;10.75;;;7.50;99.90;;;;;;5113946;28;20040;-74
2022/03/28 08:25:59;;;;;;;18.98;11.90;;;7.60;99.90;;;;;;5113767;28;20472;-74
2022/03/28 08:28:24;;;;;;;17.67;10.65;;;7.70;99.90;;;;;;5094687;28;20356;-73
2022/03/28 08:30:50;;;;;;;18.77;12.02;;;7.70;99.90;;;;;;5113158;28;20077;-72
2022/03/28 08:33:25;;;;;;;17.10;10.90;;;7.60;99.90;;;;;;5113656;28;20124;-74
2022/03/28 08:35:50;;;;;;;29.75;13.48;;;7.60;99.90;;;;;;5088288;28;20016;-73
2022/03/28 08:38:16;;;;;;;23.15;12.35;;;7.60;99.90;;;;;;5100528;28;20114;-73
2022/03/28 08:40:43;;;;;;;19.63;11.55;;;7.60;99.90;;;;;;5113786;28;20126;-73
2022/03/28 08:43:08;;;;;;;19.63;12.30;;;7.60;99.90;;;;;;5087950;28;20039;-73
2022/03/28 08:45:38;;;;;;;20.33;13.43;;;7.70;99.90;;;;;;5065014;28;20028;-75
2022/03/28 08:48:06;;;;;;;19.90;13.03;;;7.80;99.90;;;;;;5112371;28;20027;-75
2022/03/28 08:50:33;;;;;;;19.23;12.23;;;8.00;99.90;;;;;;5113008;28;20031;-75
2022/03/28 08:52:59;;;;;;;21.20;13.32;;;8.10;99.90;;;;;;5112929;28;20040;-73
2022/03/28 08:55:24;;;;;;;19.80;12.45;;;8.10;99.90;;;;;;5113094;28;20028;-73
2022/03/28 08:57:50;;;;;;;22.83;12.38;;;8.20;99.90;;;;;;5103298;28;20024;-73
2022/03/28 09:00:16;;;;;;;20.77;11.68;;;8.20;99.90;;;;;;5112684;28;20027;-73
2022/03/28 09:02:47;;;;;;;22.92;13.02;;;8.30;99.90;;;;;;5102066;28;20036;-73
2022/03/28 09:05:14;;;;;;;24.08;13.18;;;8.40;99.90;;;;;;5106064;28;20068;-74
2022/03/28 09:07:40;;;;;;;28.75;14.80;;;8.40;99.90;;;;;;5106710;28;20509;-73
2022/03/28 09:10:11;;;;;;;26.15;13.93;;;8.50;99.90;;;;;;5112486;28;20384;-75
2022/03/28 09:12:55;;;;;;;21.60;14.25;;;8.60;99.90;;;;;;5107350;28;20114;-73
2022/03/28 09:15:21;;;;;;;30.95;14.63;;;8.70;99.90;;;;;;5112443;28;20016;-74
2022/03/28 09:17:55;;;;;;;23.33;13.93;;;8.80;99.90;;;;;;5102527;28;20028;-73
2022/03/28 09:20:22;;;;;;;27.35;14.18;;;8.80;99.90;;;;;;5088056;28;20130;-73
2022/03/28 09:22:49;;;;;;;29.40;14.85;;;8.90;99.90;;;;;;5102458;28;20032;-73
2022/03/28 09:25:16;;;;;;;23.65;14.18;;;9.00;99.90;;;;;;5112051;28;20070;-75
2022/03/28 09:27:44;;;;;;;24.42;14.88;;;9.00;99.90;;;;;;5112695;28;20031;-73
2022/03/28 09:30:16;;;;;;;24.98;14.93;;;9.20;99.90;;;;;;5111858;28;20157;-74
2022/03/28 09:32:54;;;;;;;23.15;13.40;;;9.10;99.90;;;;;;5112599;28;20054;-74
2022/03/28 09:35:25;;;;;;;26.40;14.95;;;9.20;99.90;;;;;;5106834;28;20024;-74
2022/03/28 09:38:04;;;;;;;31.20;15.82;;;9.10;99.90;;;;;;5111666;28;20030;-73
2022/03/28 09:40:31;;;;;;;28.50;16.33;;;9.10;99.90;;;;;;5112314;28;20076;-73
2022/03/28 09:42:58;;;;;;;28.30;15.48;;;9.10;99.90;;;;;;5103621;28;20093;-74
2022/03/28 09:45:29;;;;;;;33.20;18.17;;;9.00;99.90;;;;;;5105455;28;20031;-73
2022/03/28 09:48:04;;;;;;;31.25;16.27;;;9.10;99.90;;;;;;5112105;28;20028;-73
2022/03/28 09:50:37;;;;;;;26.13;15.18;;;9.20;99.90;;;;;;5112160;28;20333;-73
2022/03/28 09:53:11;;;;;;;30.60;16.05;;;9.20;99.90;;;;;;5091113;28;20296;-76
2022/03/28 09:56:06;;;;;;;29.40;16.85;;;9.30;99.90;;;;;;5085090;28;20031;-78
2022/03/28 09:58:58;;;;;;;30.52;15.88;;;9.40;99.90;;;;;;5099945;28;20036;-78
2022/03/28 10:01:38;;;;;;;32.60;16.10;;;9.60;99.90;;;;;;5111562;28;20035;-78
2022/03/28 10:04:09;;;;;;;27.27;16.17;;;9.80;99.90;;;;;;5111881;28;20155;-78
2022/03/28 10:06:40;;;;;;;37.00;18.95;;;9.80;99.90;;;;;;5111228;28;20028;-77
2022/03/28 10:09:06;;;;;;;;;;;9.80;99.90;;;;;;5112356;28;20077;-77
2022/03/28 10:11:32;;;;;;;37.53;17.30;;;9.80;99.90;;;;;;5112323;28;19911;-78
2022/03/28 10:13:59;;;;;;;34.95;17.38;;;9.80;99.90;;;;;;5110584;28;20028;-77
2022/03/28 10:16:28;;;;;;;29.58;16.75;;;9.90;99.90;;;;;;5111430;28;20020;-77
2022/03/28 10:18:53;;;;;;;38.85;19.08;;;10.00;99.90;;;;;;5112007;28;20087;-77
2022/03/28 10:21:22;;;;;;;32.55;18.25;;;10.10;99.90;;;;;;5110450;28;20106;-78
2022/03/28 10:24:06;;;;;;;44.15;19.02;;;10.20;99.90;;;;;;5112183;28;20035;-78
2022/03/28 10:26:45;;;;;;;37.80;20.42;;;10.30;99.90;;;;;;5110855;28;20071;-78
2022/03/28 10:29:15;;;;;;;34.08;18.73;;;11.10;99.90;;;;;;5111058;28;20076;-78
2022/03/28 10:31:56;;;;;;;;;;;10.50;99.90;;;;;;5102357;28;20073;-78
2022/03/28 10:34:55;;;;;;;34.22;18.52;;;10.50;99.90;;;;;;5086497;28;19910;-78
2022/03/28 10:37:39;;;;;;;31.52;18.45;;;10.60;99.90;;;;;;5106016;28;20031;-78
2022/03/28 10:40:29;;;;;;;32.67;18.42;;;10.70;99.90;;;;;;5111086;28;20040;-77
2022/03/28 10:43:11;;;;;;;39.58;19.42;;;10.70;99.90;;;;;;5110579;28;20054;-77
2022/03/28 10:45:56;;;;;;;32.28;18.42;;;10.80;99.90;;;;;;5111499;28;20040;-78
2022/03/28 10:48:37;;;;;;;28.50;18.77;;;10.90;99.90;;;;;;5110212;28;20081;-78
2022/03/28 10:51:07;;;;;;;33.60;18.35;;;11.00;99.90;;;;;;5099781;28;20110;-78
2022/03/28 10:53:41;;;;;;;33.70;19.00;;;11.10;99.90;;;;;;5101548;28;20020;-77
2022/03/28 10:56:17;;;;;;;35.80;19.35;;;11.20;99.90;;;;;;5109903;28;20039;-77
2022/03/28 10:58:53;;;;;;;41.65;20.60;;;11.30;99.90;;;;;;5110982;28;20036;-77
2022/03/28 11:01:19;;;;;;;39.35;19.75;;;11.40;99.90;;;;;;5089161;28;20063;-78
2022/03/28 11:04:00;;;;;;;34.20;18.33;;;11.50;99.90;;;;;;5086261;28;20028;-76
2022/03/28 11:07:05;;;;;;;46.45;19.98;;;11.60;99.90;;;;;;5088402;28;20068;-76
2022/03/28 11:09:45;;;;;;;33.63;19.70;;;11.70;99.90;;;;;;5097399;28;20075;-76
2022/03/28 11:12:14;;;;;;;36.83;19.98;;;11.70;99.90;;;;;;5110286;28;20065;-76
2022/03/28 11:14:41;;;;;;;36.80;19.50;;;11.70;99.90;;;;;;5095036;28;20023;-76
2022/03/28 11:17:34;;;;;;;37.78;19.65;;;11.80;99.90;;;;;;5103764;28;20436;-76
2022/03/28 11:20:20;;;;;;;36.85;19.40;;;12.00;99.90;;;;;;5110604;28;20475;-77
2022/03/28 11:22:56;;;;;;;32.63;19.70;;;12.00;99.90;;;;;;5110468;28;20541;-77
2022/03/28 11:25:51;;;;;;;39.28;19.45;;;12.20;99.90;;;;;;5108774;28;20042;-76
2022/03/28 11:28:26;;;;;;;33.95;19.20;;;12.20;99.90;;;;;;5082365;28;20028;-76
2022/03/28 11:30:59;;;;;;;36.38;19.27;;;12.30;99.90;;;;;;5101896;28;20032;-76
2022/03/28 11:33:48;;;;;;;36.53;19.10;;;12.40;99.90;;;;;;5109903;28;20062;-77
2022/03/28 11:36:21;;;;;;;31.90;17.58;;;12.40;99.90;;;;;;5084945;28;20172;-77
2022/03/28 11:38:55;;;;;;;33.97;19.45;;;12.60;99.90;;;;;;5110038;28;20024;-77
2022/03/28 11:41:25;;;;;;;28.65;17.23;;;12.60;99.90;;;;;;5110073;28;20472;-77
2022/03/28 11:43:53;;;;;;;32.53;17.43;;;12.70;99.90;;;;;;5109924;28;20046;-76
2022/03/28 11:46:27;;;;;;;27.98;17.05;;;12.80;99.90;;;;;;5110416;28;20031;-76
2022/03/28 11:49:04;;;;;;;29.00;17.33;;;12.80;99.90;;;;;;5110492;28;20046;-77
2022/03/28 11:51:32;;;;;;;28.02;16.70;;;12.90;99.90;;;;;;5109714;28;20039;-76
2022/03/28 11:53:59;;;;;;;30.00;18.10;;;12.90;99.90;;;;;;5109998;28;20035;-76
2022/03/28 11:56:30;;;;;;;32.05;16.75;;;13.00;99.90;;;;;;5108597;28;20028;-76
2022/03/28 11:59:07;;;;;;;36.22;14.68;;;13.00;99.90;;;;;;5108925;28;20472;-74
2022/03/28 12:01:35;;;;;;;30.45;16.58;;;13.00;99.90;;;;;;5110205;28;20031;-76
2022/03/28 12:04:02;;;;;;;29.42;15.48;;;13.60;99.90;;;;;;5095206;28;20046;-74
2022/03/28 12:06:31;;;;;;;28.98;15.18;;;13.10;99.90;;;;;;5106890;28;20399;-75
2022/03/28 12:08:58;;;;;;;26.20;15.07;;;13.20;99.90;;;;;;5103574;28;20047;-75
2022/03/28 12:11:24;;;;;;;28.75;14.35;;;13.20;99.90;;;;;;5109980;28;20051;-76
2022/03/28 12:13:51;;;;;;;23.52;14.30;;;13.20;99.90;;;;;;5106968;28;20031;-76
2022/03/28 12:16:21;;;;;;;20.83;14.13;;;13.20;99.90;;;;;;5101837;28;20481;-76
2022/03/28 12:18:48;;;;;;;28.08;15.00;;;13.30;99.90;;;;;;5085728;28;20087;-76
2022/03/28 12:21:14;;;;;;;23.98;14.48;;;13.40;99.90;;;;;;5088223;28;20047;-75
2022/03/28 12:23:39;;;;;;;25.58;14.25;;;13.50;99.90;;;;;;5088376;28;20086;-75
2022/03/28 12:26:05;;;;;;;25.17;14.13;;;13.60;99.90;;;;;;5085611;28;20035;-76
2022/03/28 12:28:35;;;;;;;23.85;13.95;;;13.70;99.90;;;;;;5085259;28;20040;-76
2022/03/28 12:31:04;;;;;;;24.15;13.65;;;13.70;99.90;;;;;;5084583;28;20019;-76
2022/03/28 12:33:35;;;;;;;26.65;13.40;;;13.80;99.90;;;;;;5086211;28;20035;-76
2022/03/28 12:36:09;;;;;;;28.90;13.85;;;13.90;99.90;;;;;;5088078;28;20033;-76
2022/03/28 12:38:38;;;;;;;25.75;12.80;;;13.80;99.90;;;;;;5093866;28;20032;-76
2022/03/28 12:41:31;;;;;;;26.17;11.98;;;13.90;99.90;;;;;;5086366;28;20027;-75
2022/03/28 12:43:56;;;;;;;25.17;11.30;;;13.90;99.90;;;;;;5089061;28;20025;-76
2022/03/28 12:46:23;;;;;;;22.02;11.07;;;14.00;99.90;;;;;;5090036;28;20099;-75
2022/03/28 12:48:51;;;;;;;23.13;11.52;;;14.00;99.90;;;;;;5086959;28;20049;-76
2022/03/28 12:51:28;;;;;;;27.20;12.85;;;14.00;99.90;;;;;;5087948;28;20487;-76